createdAt,value
2024-01-05T00:01:49.284Z,92453.31
2024-01-05T00:04:16.761Z,92451.81
2024-01-05T00:06:44.288Z,92443.75
2024-01-05T00:09:11.824Z,92447.94
2024-01-05T00:11:38.976Z,92458.31
2024-01-05T00:14:06.408Z,92460.97
2024-01-05T00:16:33.545Z,92456.34
2024-01-05T00:19:02.276Z,92445.66
2024-01-05T00:21:29.843Z,92463.22
2024-01-05T00:23:58.106Z,92442.59
2024-01-05T00:26:26.588Z,92447.56
2024-01-05T00:28:54.381Z,92442.16
2024-01-05T00:31:21.551Z,92443.69
2024-01-05T00:33:48.801Z,92449.06
2024-01-05T00:36:17.606Z,92441.03
2024-01-05T00:38:48.673Z,92431.47
2024-01-05T00:41:16.608Z,92426.50
2024-01-05T00:43:44.014Z,92427.25
2024-01-05T00:46:11.273Z,92424.19
2024-01-05T00:48:38.716Z,92429.53
2024-01-05T00:51:06.313Z,92411.22
2024-01-05T00:53:35.012Z,92411.56
2024-01-05T00:56:02.101Z,92412.28
2024-01-05T00:58:30.360Z,92408.44
2024-01-05T01:00:57.640Z,92416.41
2024-01-05T01:03:24.925Z,92407.97
2024-01-05T01:05:52.325Z,92423.66
2024-01-05T01:08:19.465Z,92429.44
2024-01-05T01:10:47.907Z,92403.78
2024-01-05T01:13:14.952Z,92418.00
2024-01-05T01:15:42.104Z,92416.47
2024-01-05T01:18:09.765Z,92429.09
2024-01-05T01:20:37.262Z,92428.31
2024-01-05T01:23:04.606Z,92432.88
2024-01-05T01:25:31.843Z,92425.69
2024-01-05T01:28:00.295Z,92416.53
2024-01-05T01:30:27.484Z,92414.97
2024-01-05T01:32:54.796Z,92419.13
2024-01-05T01:35:22.378Z,92422.97
2024-01-05T01:37:49.392Z,92418.00
2024-01-05T01:40:16.860Z,92428.34
2024-01-05T01:42:45.796Z,92422.63
2024-01-05T01:45:14.777Z,92422.53
2024-01-05T01:47:43.062Z,92417.94
2024-01-05T01:50:11.930Z,92424.09
2024-01-05T01:52:43.662Z,92414.94
2024-01-05T01:55:11.345Z,92402.75
2024-01-05T01:57:39.714Z,92405.44
2024-01-05T02:00:09.267Z,92400.81
2024-01-05T02:02:39.136Z,92397.41
2024-01-05T02:05:07.480Z,92379.84
2024-01-05T02:07:34.880Z,92382.91
2024-01-05T02:10:03.355Z,92383.66
2024-01-05T02:12:31.008Z,92383.69
2024-01-05T02:14:58.261Z,92389.03
2024-01-05T02:17:46.887Z,92371.44
2024-01-05T02:20:14.132Z,92365.34
2024-01-05T02:22:48.232Z,92378.00
2024-01-05T02:25:16.841Z,92378.00
2024-01-05T02:27:44.418Z,92370.69
2024-01-05T02:30:19.352Z,92378.34
2024-01-05T02:32:46.601Z,92352.75
2024-01-05T02:35:13.670Z,92351.94
2024-01-05T02:37:43.656Z,92345.44
2024-01-05T02:40:12.887Z,92348.53
2024-01-05T02:42:41.328Z,92350.44
2024-01-05T02:45:09.369Z,92345.84
2024-01-05T02:47:36.432Z,92355.03
2024-01-05T02:50:09.359Z,92345.06
2024-01-05T02:52:36.845Z,92340.09
2024-01-05T02:55:05.728Z,92334.00
2024-01-05T02:57:33.080Z,92327.06
2024-01-05T03:00:01.883Z,92315.97
2024-01-05T03:02:29.069Z,92311.41
2024-01-05T03:04:56.483Z,92296.47
2024-01-05T03:07:23.712Z,92311.41
2024-01-05T03:09:51.189Z,92302.22
2024-01-05T03:12:19.089Z,92302.22
2024-01-05T03:14:46.260Z,92298.03
2024-01-05T03:17:14.830Z,92285.00
2024-01-05T03:19:42.301Z,92290.38
2024-01-05T03:22:09.683Z,92282.72
2024-01-05T03:24:36.788Z,92276.97
2024-01-05T03:27:05.542Z,92280.81
2024-01-05T03:29:32.609Z,92265.91
2024-01-05T03:31:59.851Z,92255.56
2024-01-05T03:34:29.623Z,92262.84
2024-01-05T03:36:56.861Z,92250.59
2024-01-05T03:39:24.397Z,92239.13
2024-01-05T03:41:51.740Z,92259.75
2024-01-05T03:44:21.696Z,92244.47
2024-01-05T03:46:49.285Z,92250.56
2024-01-05T03:49:16.893Z,92241.41
2024-01-05T03:51:45.492Z,92246.00
2024-01-05T03:54:12.822Z,92233.38
2024-01-05T03:56:41.315Z,92230.69
2024-01-05T03:59:09.164Z,92233.31
2024-01-05T04:01:44.316Z,92230.63
2024-01-05T04:04:11.686Z,92246.28
2024-01-05T04:06:39.168Z,92231.78
2024-01-05T04:09:11.433Z,92234.03
2024-01-05T04:11:38.997Z,92252.81
2024-01-05T04:14:07.588Z,92244.81
2024-01-05T04:16:35.066Z,92229.88
2024-01-05T04:19:02.575Z,92234.09
2024-01-05T04:21:30.053Z,92227.63
2024-01-05T04:23:58.324Z,92236.81
2024-01-05T04:26:27.469Z,92226.47
2024-01-05T04:28:54.646Z,92224.59
2024-01-05T04:31:22.047Z,92226.13
2024-01-05T04:33:49.454Z,92214.25
2024-01-05T04:36:17.557Z,92235.31
2024-01-05T04:38:45.265Z,92233.00
2024-01-05T04:41:15.826Z,92235.28
2024-01-05T04:43:45.683Z,92231.81
2024-01-05T04:46:13.042Z,92228.41
2024-01-05T04:48:40.369Z,92221.53
2024-01-05T04:51:07.677Z,92215.44
2024-01-05T04:53:34.935Z,92221.53
2024-01-05T04:56:02.015Z,92201.63
2024-01-05T04:58:29.469Z,92203.16
2024-01-05T05:00:58.324Z,92207.00
2024-01-05T05:03:27.273Z,92214.66
2024-01-05T05:05:54.654Z,92207.00
2024-01-05T05:08:22.052Z,92197.09
2024-01-05T05:10:49.432Z,92205.09
2024-01-05T05:13:16.613Z,92201.66
2024-01-05T05:15:44.099Z,92212.38
2024-01-05T05:18:12.801Z,92200.91
2024-01-05T05:20:39.966Z,92215.81
2024-01-05T05:23:07.060Z,92214.59
2024-01-05T05:25:34.550Z,92219.63
2024-01-05T05:28:01.681Z,92213.88
2024-01-05T05:30:29.328Z,92207.38
2024-01-05T05:32:56.666Z,92202.44
2024-01-05T05:35:25.875Z,92213.13
2024-01-05T05:37:53.061Z,92187.13
2024-01-05T05:40:20.326Z,92201.63
2024-01-05T05:42:47.713Z,92192.44
2024-01-05T05:45:15.367Z,92196.22
2024-01-05T05:47:42.816Z,92205.44
2024-01-05T05:50:10.710Z,92216.09
2024-01-05T06:09:57.347Z,92240.59
2024-01-05T06:12:25.026Z,92240.97
2024-01-05T06:14:52.170Z,92224.50
2024-01-05T06:17:20.049Z,92243.97
2024-01-05T06:19:47.230Z,92254.28
2024-01-05T06:22:14.606Z,92240.16
2024-01-05T06:24:41.989Z,92245.16
2024-01-05T06:27:11.570Z,92242.84
2024-01-05T06:29:39.857Z,92240.94
2024-01-05T06:32:07.878Z,92249.72
2024-01-05T06:34:35.077Z,92239.00
2024-01-05T06:37:02.225Z,92240.53
2024-01-05T06:39:29.696Z,92248.84
2024-01-05T06:41:57.171Z,92213.72
2024-01-05T06:44:25.768Z,92228.22
2024-01-05T06:46:53.818Z,92223.56
2024-01-05T06:49:21.578Z,92217.88
2024-01-05T06:51:49.123Z,92217.53
2024-01-05T06:54:16.817Z,92223.63
2024-01-05T06:56:44.395Z,92215.25
2024-01-05T06:59:12.129Z,92201.47
2024-01-05T07:01:40.624Z,92189.22
2024-01-05T07:04:09.367Z,92212.16
2024-01-05T07:06:41.692Z,92216.78
2024-01-05T07:09:08.994Z,92216.00
2024-01-05T07:11:36.518Z,92222.50
2024-01-05T07:14:03.888Z,92214.91
2024-01-05T07:16:30.980Z,92214.53
2024-01-05T07:19:00.382Z,92219.47
2024-01-05T07:21:27.853Z,92211.91
2024-01-05T07:23:55.489Z,92206.09
2024-01-05T07:26:22.936Z,92219.06
2024-01-05T07:28:51.004Z,92216.00
2024-01-05T07:31:23.743Z,92198.47
2024-01-05T07:33:53.360Z,92225.63
2024-01-05T07:36:21.904Z,92208.47
2024-01-05T07:38:49.221Z,92200.81
2024-01-05T07:41:17.634Z,92204.63
2024-01-05T07:43:45.445Z,92221.44
2024-01-05T07:46:13.472Z,92219.22
2024-01-05T07:48:41.989Z,92196.63
2024-01-05T07:51:10.369Z,92208.06
2024-01-05T07:53:39.902Z,92194.34
2024-01-05T07:56:09.840Z,92201.53
2024-01-05T07:58:36.929Z,92190.09
2024-01-05T08:01:04.316Z,92176.69
2024-01-05T08:03:31.717Z,92170.22
2024-01-05T08:05:59.069Z,92170.59
2024-01-05T08:08:26.224Z,92167.19
2024-01-05T08:10:54.701Z,92180.53
2024-01-05T08:13:27.119Z,92185.47
2024-01-05T08:15:54.729Z,92168.75
2024-01-05T08:18:22.149Z,92179.50
2024-01-05T08:20:49.364Z,92177.97
2024-01-05T08:23:16.523Z,92171.88
2024-01-05T08:25:43.664Z,92179.88
2024-01-05T08:28:12.109Z,92186.75
2024-01-05T08:30:40.719Z,92189.78
2024-01-05T08:33:08.281Z,92192.84
2024-01-05T08:35:38.582Z,92192.06
2024-01-05T08:38:05.926Z,92196.28
2024-01-05T08:40:33.368Z,92207.72
2024-01-05T08:43:00.775Z,92202.00
2024-01-05T08:45:30.931Z,92197.41
2024-01-05T08:48:12.583Z,92198.53
2024-01-05T08:50:39.828Z,92200.06
2024-01-05T08:53:06.992Z,92175.22
2024-01-05T08:55:34.283Z,92186.28
2024-01-05T08:58:03.929Z,92192.41
2024-01-05T09:00:32.929Z,92187.44
2024-01-05T09:03:05.283Z,92173.66
2024-01-05T09:05:32.700Z,92203.81
2024-01-05T09:08:00.271Z,92218.25
2024-01-05T09:10:27.907Z,92212.16
2024-01-05T09:12:55.039Z,92220.13
2024-01-05T09:15:24.138Z,92228.28
2024-01-05T09:17:53.208Z,92218.31
2024-01-05T09:20:20.630Z,92215.59
2024-01-05T09:22:47.815Z,92219.78
2024-01-05T09:25:15.384Z,92212.91
2024-01-05T09:27:47.518Z,92226.63
2024-01-05T09:30:15.735Z,92193.00
2024-01-05T09:32:43.026Z,92201.41
2024-01-05T09:35:12.363Z,92224.34
2024-01-05T09:37:45.997Z,92209.47
2024-01-05T09:40:33.188Z,92206.81
2024-01-05T09:43:23.757Z,92221.31
2024-01-05T09:46:11.316Z,92216.00
2024-01-05T09:48:59.950Z,92216.41
2024-01-05T09:51:48.472Z,92219.03
2024-01-05T09:54:35.646Z,92222.13
2024-01-05T09:57:26.336Z,92226.34
2024-01-05T10:00:16.802Z,92209.16
2024-01-05T10:03:11.463Z,92205.75
2024-01-05T10:06:00.626Z,92210.03
2024-01-05T10:08:53.976Z,92198.97
2024-01-05T10:11:43.220Z,92195.16
2024-01-05T10:14:30.744Z,92199.38
2024-01-05T10:17:18.559Z,92193.28
2024-01-05T10:20:13.725Z,92194.00
2024-01-05T10:23:06.125Z,92187.84
2024-01-05T10:25:54.732Z,92182.50
2024-01-05T10:28:41.652Z,92157.69
2024-01-05T10:31:28.870Z,92173.31
2024-01-05T10:34:16.188Z,92163.78
2024-01-05T10:37:07.212Z,92156.09
2024-01-05T10:39:55.749Z,92142.75
2024-01-05T10:42:44.410Z,92140.47
2024-01-05T10:45:32.147Z,92133.59
2024-01-05T10:48:22.605Z,92121.75
2024-01-05T10:51:15.668Z,92116.03
2024-01-05T10:54:03.514Z,92122.13
2024-01-05T10:56:55.740Z,92122.91
2024-01-05T10:59:47.033Z,92147.34
2024-01-05T11:02:42.940Z,92133.94
2024-01-05T11:05:32.897Z,92123.56
2024-01-05T11:08:37.354Z,92106.78
2024-01-05T11:11:43.859Z,92128.16
2024-01-05T11:14:58.440Z,92116.72
2024-01-05T11:18:34.880Z,92140.06
2024-01-05T11:21:33.991Z,92125.13
2024-01-05T11:24:23.500Z,92119.03
2024-01-05T11:27:34.428Z,92127.41
2024-01-05T11:30:42.896Z,92116.69
2024-01-05T11:33:49.374Z,92120.88
2024-01-05T11:36:55.839Z,92126.16
2024-01-05T11:39:46.020Z,92121.97
2024-01-05T11:42:34.835Z,92115.81
2024-01-05T11:45:50.983Z,92090.97
2024-01-05T11:48:48.935Z,92117.72
2024-01-05T11:51:36.334Z,92116.50
2024-01-05T11:54:23.478Z,92114.31
2024-01-05T11:57:11.107Z,92109.38
2024-01-05T11:59:58.362Z,92111.88
2024-01-05T12:02:47.123Z,92113.41
2024-01-05T12:05:34.461Z,92107.25
2024-01-05T12:08:22.960Z,92113.75
2024-01-05T12:11:12.382Z,92113.72
2024-01-05T12:14:00.678Z,92102.59
2024-01-05T12:16:48.178Z,92108.06
2024-01-05T12:19:36.655Z,92108.84
2024-01-05T12:22:24.000Z,92093.16
2024-01-05T12:25:11.650Z,92091.13
2024-01-05T12:28:00.139Z,92094.78
2024-01-05T12:30:47.626Z,92084.41
2024-01-05T12:33:38.568Z,92104.28
2024-01-05T12:36:29.512Z,92092.50
2024-01-05T12:39:17.474Z,92104.69
2024-01-05T12:42:05.245Z,92092.75
2024-01-05T12:44:52.866Z,92096.22
2024-01-05T12:47:40.515Z,92093.50
2024-01-05T12:50:29.480Z,92093.31
2024-01-05T12:53:22.456Z,92099.31
2024-01-05T12:56:11.893Z,92088.31
2024-01-05T12:58:59.570Z,92085.91
2024-01-05T13:01:46.974Z,92090.81
2024-01-05T13:04:40.012Z,92092.34
2024-01-05T13:07:30.365Z,92100.44
2024-01-05T13:10:18.825Z,92094.38
2024-01-05T13:13:06.905Z,92093.53
2024-01-05T13:15:53.922Z,92097.34
2024-01-05T13:18:41.323Z,92093.66
2024-01-05T13:21:32.215Z,92094.09
2024-01-05T13:24:19.706Z,92101.38
2024-01-05T13:27:09.352Z,92102.78
2024-01-05T13:29:56.545Z,92104.59
2024-01-05T13:32:47.540Z,92098.78
2024-01-05T13:35:34.605Z,92100.50
2024-01-05T13:38:23.385Z,92106.69
2024-01-05T13:41:10.663Z,92090.19
2024-01-05T13:43:59.435Z,92082.97
2024-01-05T13:46:46.482Z,92095.91
2024-01-05T13:49:33.991Z,92099.47
2024-01-05T13:52:21.496Z,92105.25
2024-01-05T13:55:09.534Z,92109.44
2024-01-05T13:57:56.661Z,92105.09
2024-01-05T14:00:49.217Z,92113.56
2024-01-05T14:03:36.680Z,92114.69
2024-01-05T14:06:24.118Z,92111.25
2024-01-05T14:09:11.176Z,92108.75
2024-01-05T14:11:58.914Z,92114.09
2024-01-05T14:14:46.079Z,92104.63
2024-01-05T14:17:34.475Z,92112.84
2024-01-05T14:20:21.978Z,92101.00
2024-01-05T14:23:10.110Z,92104.84
2024-01-05T14:25:58.262Z,92093.69
2024-01-05T14:28:45.828Z,92097.53
2024-01-05T14:31:37.138Z,92101.41
2024-01-05T14:34:25.879Z,92103.59
2024-01-05T14:37:13.248Z,92099.06
2024-01-05T14:40:00.396Z,92100.22
2024-01-05T14:42:48.114Z,92094.13
2024-01-05T14:45:35.313Z,92097.94
2024-01-05T14:48:23.154Z,92091.00
2024-01-05T14:51:11.760Z,92094.81
2024-01-05T14:54:00.242Z,92073.53
2024-01-05T14:56:47.464Z,92090.22
2024-01-05T14:59:34.779Z,92084.81
2024-01-05T15:02:21.885Z,92101.00
2024-01-05T15:05:12.237Z,92095.59
2024-01-05T15:08:00.869Z,92095.22
2024-01-05T15:10:47.990Z,92098.72
2024-01-05T15:13:35.729Z,92099.84
2024-01-05T15:16:23.442Z,92106.03
2024-01-05T15:19:10.848Z,92106.00
2024-01-05T15:21:58.712Z,92084.97
2024-01-05T15:24:49.012Z,92101.41
2024-01-05T15:27:36.812Z,92092.59
2024-01-05T15:30:24.624Z,92101.00
2024-01-05T15:33:11.855Z,92108.88
2024-01-05T15:35:59.104Z,92114.63
2024-01-05T15:38:46.357Z,92108.72
2024-01-05T15:41:35.380Z,92118.75
2024-01-05T15:44:22.538Z,92108.03
2024-01-05T15:47:09.747Z,92116.47
2024-01-05T15:49:56.852Z,92115.63
2024-01-05T15:52:44.063Z,92125.53
2024-01-05T15:55:37.965Z,92123.25
2024-01-05T15:58:29.288Z,92134.06
2024-01-05T16:01:17.060Z,92138.59
2024-01-05T16:04:05.061Z,92147.38
2024-01-05T16:06:52.631Z,92143.94
2024-01-05T16:09:40.105Z,92145.13
2024-01-05T16:12:27.272Z,92134.44
2024-01-05T16:15:20.695Z,92134.47
2024-01-05T16:18:08.000Z,92145.94
2024-01-05T16:20:55.645Z,92142.53
2024-01-05T16:23:42.722Z,92142.56
2024-01-05T16:26:30.427Z,92148.31
2024-01-05T16:29:17.591Z,92128.13
2024-01-05T16:32:09.466Z,92154.13
2024-01-05T16:34:56.515Z,92154.13
2024-01-05T16:37:44.057Z,92150.25
2024-01-05T16:40:31.194Z,92152.56
2024-01-05T16:43:18.280Z,92151.03
2024-01-05T16:46:06.270Z,92159.47
2024-01-05T16:48:55.400Z,92152.22
2024-01-05T16:51:42.682Z,92157.56
2024-01-05T16:54:29.905Z,92159.50
2024-01-05T16:57:17.071Z,92156.81
2024-01-05T17:00:06.058Z,92145.34
2024-01-05T17:02:54.150Z,92141.47
2024-01-05T17:05:47.343Z,92154.50
2024-01-05T17:08:34.521Z,92145.72
2024-01-05T17:11:23.333Z,92140.34
2024-01-05T17:14:11.529Z,92139.66
2024-01-05T17:16:58.673Z,92139.31
2024-01-05T17:19:45.730Z,92136.22
2024-01-05T17:22:34.474Z,92145.78
2024-01-05T17:25:21.523Z,92142.75
2024-01-05T17:28:08.571Z,92148.50
2024-01-05T17:30:57.748Z,92135.47
2024-01-05T17:33:44.918Z,92145.03
2024-01-05T17:36:32.103Z,92137.38
2024-01-05T17:39:21.066Z,92136.63
2024-01-05T17:42:10.066Z,92135.09
2024-01-05T17:44:57.462Z,92138.91
2024-01-05T17:47:45.188Z,92137.00
2024-01-05T17:50:32.549Z,92145.41
2024-01-05T17:53:19.614Z,92148.88
2024-01-05T17:56:08.908Z,92145.81
2024-01-05T17:58:55.985Z,92155.41
2024-01-05T18:01:23.999Z,92157.31
2024-01-05T18:03:51.321Z,92158.09
2024-01-05T18:06:18.572Z,92155.81
2024-01-05T18:08:51.311Z,92153.50
2024-01-05T18:11:24.154Z,92139.00
2024-01-05T18:13:52.167Z,92144.34
2024-01-05T18:16:23.302Z,92145.47
2024-01-05T18:18:51.270Z,92144.34
2024-01-05T18:21:26.443Z,92152.75
2024-01-05T18:23:54.861Z,92143.59
2024-01-05T18:26:25.574Z,92148.16
2024-01-05T18:28:52.771Z,92140.16
2024-01-05T18:31:25.164Z,92146.63
2024-01-05T18:33:52.487Z,92150.06
2024-01-05T18:36:20.875Z,92153.50
2024-01-05T18:38:49.294Z,92146.63
2024-01-05T18:41:20.933Z,92140.16
2024-01-05T18:43:49.820Z,92144.31
2024-01-05T18:46:17.102Z,92147.00
2024-01-05T18:48:44.606Z,92142.44
2024-01-05T18:51:12.306Z,92148.56
2024-01-05T18:53:39.692Z,92152.38
2024-01-05T18:56:07.820Z,92161.16
2024-01-05T18:58:36.406Z,92158.50
2024-01-05T19:01:05.494Z,92169.59
2024-01-05T19:03:33.052Z,92165.75
2024-01-05T19:06:00.200Z,92174.91
2024-01-05T19:08:29.070Z,92173.41
2024-01-05T19:10:56.248Z,92176.84
2024-01-05T19:13:23.356Z,92178.75
2024-01-05T19:15:50.599Z,92176.84
2024-01-05T19:18:19.274Z,92179.88
2024-01-05T19:20:46.714Z,92183.31
2024-01-05T19:23:13.771Z,92179.13
2024-01-05T19:25:41.608Z,92186.38
2024-01-05T19:28:08.665Z,92190.97
2024-01-05T19:30:35.915Z,92186.38
2024-01-05T19:33:03.818Z,92184.09
2024-01-05T19:35:32.372Z,92192.50
2024-01-05T19:38:01.460Z,92198.63
2024-01-05T19:40:29.425Z,92197.84
2024-01-05T19:42:57.347Z,92196.69
2024-01-05T19:45:24.563Z,92196.31
2024-01-05T19:47:51.722Z,92199.00
2024-01-05T19:50:18.829Z,92190.91
2024-01-05T19:52:47.342Z,92186.34
2024-01-05T19:55:14.685Z,92194.34
2024-01-05T19:57:41.806Z,92202.38
2024-01-05T20:00:11.136Z,92194.00
2024-01-05T20:02:38.528Z,92200.09
2024-01-05T20:05:06.359Z,92205.41
2024-01-05T20:07:33.401Z,92199.31
2024-01-05T20:10:01.883Z,92200.09
2024-01-05T20:12:31.538Z,92184.03
2024-01-05T20:14:58.823Z,92185.19
2024-01-05T20:17:26.855Z,92192.84
2024-01-05T20:20:14.492Z,92188.25
2024-01-05T20:22:41.732Z,92195.91
2024-01-05T20:25:12.218Z,92200.09
2024-01-05T20:27:40.868Z,92202.75
2024-01-05T20:30:11.188Z,92203.88
2024-01-05T20:32:40.997Z,92198.56
2024-01-05T20:35:10.900Z,92198.56
2024-01-05T20:37:38.794Z,92194.00
2024-01-05T20:40:10.814Z,92184.03
2024-01-05T20:42:39.451Z,92201.63
2024-01-05T20:45:13.050Z,92200.47
2024-01-05T20:47:40.322Z,92198.13
2024-01-05T20:50:08.589Z,92189.34
2024-01-05T20:52:35.986Z,92194.69
2024-01-05T20:55:03.475Z,92197.69
2024-01-05T20:57:31.613Z,92203.81
2024-01-05T21:00:00.573Z,92206.19
2024-01-05T21:02:27.825Z,92209.97
2024-01-05T21:04:54.964Z,92204.56
2024-01-05T21:07:22.981Z,92205.38
2024-01-05T21:09:50.274Z,92216.09
2024-01-05T21:12:17.513Z,92216.84
2024-01-05T21:14:47.686Z,92206.16
2024-01-05T21:17:16.587Z,92204.25
2024-01-05T21:19:43.735Z,92197.00
2024-01-05T21:22:10.820Z,92211.13
2024-01-05T21:24:40.668Z,92209.22
2024-01-05T21:27:07.954Z,92200.78
2024-01-05T21:29:35.059Z,92204.22
2024-01-05T21:32:02.301Z,92195.06
2024-01-05T21:34:30.773Z,92200.41
2024-01-05T21:36:59.379Z,92193.91
2024-01-05T21:39:28.050Z,92206.22
2024-01-05T21:41:55.112Z,92207.38
2024-01-05T21:44:24.127Z,92201.63
2024-01-05T21:46:52.885Z,92203.47
2024-01-05T21:49:20.281Z,92207.69
2024-01-05T21:51:48.998Z,92204.25
2024-01-05T21:54:16.691Z,92214.59
2024-01-05T21:56:44.033Z,92213.00
2024-01-05T21:59:12.011Z,92204.56
2024-01-05T22:01:39.218Z,92204.56
2024-01-05T22:04:06.540Z,92198.06
2024-01-05T22:06:33.805Z,92206.88
2024-01-05T22:09:02.336Z,92201.91
2024-01-05T22:11:29.602Z,92198.88
2024-01-05T22:13:56.793Z,92192.38
2024-01-05T22:16:24.065Z,92190.06
2024-01-05T22:18:51.510Z,92185.44
2024-01-05T22:21:19.750Z,92187.31
2024-01-05T22:23:47.952Z,92177.69
2024-01-05T22:26:24.380Z,92179.28
2024-01-05T22:28:51.471Z,92183.91
2024-01-05T22:31:18.656Z,92186.13
2024-01-05T22:33:47.385Z,92180.75
2024-01-05T22:36:15.860Z,92190.72
2024-01-05T22:38:43.004Z,92188.81
2024-01-05T22:41:12.204Z,92182.38
2024-01-05T22:43:42.274Z,92181.97
2024-01-05T22:46:11.400Z,92182.41
2024-01-05T22:48:38.715Z,92175.88
2024-01-05T22:51:06.556Z,92167.88
2024-01-05T22:53:33.626Z,92170.91
2024-01-05T22:56:00.799Z,92167.88
2024-01-05T22:58:28.068Z,92168.63
2024-01-05T23:00:56.748Z,92167.09
2024-01-05T23:03:23.965Z,92170.97
2024-01-05T23:05:51.100Z,92175.19
2024-01-05T23:08:21.923Z,92169.44
2024-01-05T23:10:50.217Z,92164.09
2024-01-05T23:13:17.322Z,92165.66
2024-01-05T23:15:44.588Z,92168.31
2024-01-05T23:18:13.145Z,92170.22
2024-01-05T23:20:40.328Z,92159.91
2024-01-05T23:23:07.462Z,92167.59
2024-01-05T23:25:34.551Z,92171.84
2024-01-05T23:28:01.633Z,92174.91
2024-01-05T23:30:28.747Z,92178.69
2024-01-05T23:32:55.962Z,92173.38
2024-01-05T23:35:24.408Z,92174.91
2024-01-05T23:37:53.394Z,92173.34
2024-01-05T23:40:20.523Z,92177.13
2024-01-05T23:42:48.253Z,92174.44
2024-01-05T23:45:15.742Z,92174.47
2024-01-05T23:47:42.771Z,92178.63
2024-01-05T23:50:10.395Z,92177.88
2024-01-05T23:52:39.171Z,92174.06
2024-01-05T23:55:06.645Z,92174.47
2024-01-05T23:57:33.756Z,92175.97
